sensor_id;sensor_type;location;lat;lon;timestamp;P1;durP1;ratioP1;P2;durP2;ratioP2
15883;SDS011;8040;50.254;10.960;2024-03-02T00:00:19;423.17;;;109.60;;
15883;SDS011;8040;50.254;10.960;2024-03-02T00:02:47;424.20;;;108.38;;
15883;SDS011;8040;50.254;10.960;2024-03-02T00:05:16;425.17;;;109.88;;
15883;SDS011;8040;50.254;10.960;2024-03-02T00:07:43;417.58;;;108.70;;
15883;SDS011;8040;50.254;10.960;2024-03-02T00:10:10;428.77;;;110.28;;
15883;SDS011;8040;50.254;10.960;2024-03-02T00:12:37;428.00;;;110.22;;
15883;SDS011;8040;50.254;10.960;2024-03-02T00:15:05;409.17;;;103.55;;
15883;SDS011;8040;50.254;10.960;2024-03-02T00:17:43;430.48;;;110.75;;
15883;SDS011;8040;50.254;10.960;2024-03-02T00:20:09;424.93;;;109.40;;
15883;SDS011;8040;50.254;10.960;2024-03-02T00:22:35;428.45;;;110.30;;
15883;SDS011;8040;50.254;10.960;2024-03-02T00:25:02;424.80;;;108.65;;
15883;SDS011;8040;50.254;10.960;2024-03-02T00:27:28;432.35;;;111.40;;
15883;SDS011;8040;50.254;10.960;2024-03-02T00:29:54;423.42;;;108.55;;
15883;SDS011;8040;50.254;10.960;2024-03-02T00:32:20;425.10;;;108.65;;
15883;SDS011;8040;50.254;10.960;2024-03-02T00:34:46;416.90;;;106.85;;
15883;SDS011;8040;50.254;10.960;2024-03-02T00:37:11;422.17;;;107.63;;
15883;SDS011;8040;50.254;10.960;2024-03-02T00:39:37;424.30;;;108.50;;
15883;SDS011;8040;50.254;10.960;2024-03-02T00:42:02;415.83;;;107.20;;
15883;SDS011;8040;50.254;10.960;2024-03-02T00:44:28;419.90;;;107.93;;
15883;SDS011;8040;50.254;10.960;2024-03-02T00:47:00;427.30;;;108.95;;
15883;SDS011;8040;50.254;10.960;2024-03-02T00:49:26;408.80;;;105.70;;
15883;SDS011;8040;50.254;10.960;2024-03-02T00:51:53;425.88;;;109.47;;
15883;SDS011;8040;50.254;10.960;2024-03-02T00:54:20;411.95;;;105.72;;
15883;SDS011;8040;50.254;10.960;2024-03-02T00:56:49;418.30;;;107.15;;
15883;SDS011;8040;50.254;10.960;2024-03-02T00:59:15;412.38;;;105.93;;
15883;SDS011;8040;50.254;10.960;2024-03-02T01:01:41;415.52;;;106.85;;
15883;SDS011;8040;50.254;10.960;2024-03-02T01:04:07;414.25;;;106.22;;
15883;SDS011;8040;50.254;10.960;2024-03-02T01:06:32;417.60;;;106.50;;
15883;SDS011;8040;50.254;10.960;2024-03-02T01:08:59;419.73;;;108.43;;
15883;SDS011;8040;50.254;10.960;2024-03-02T01:11:24;421.30;;;106.30;;
15883;SDS011;8040;50.254;10.960;2024-03-02T01:13:50;412.70;;;105.60;;
15883;SDS011;8040;50.254;10.960;2024-03-02T01:16:16;418.98;;;106.63;;
15883;SDS011;8040;50.254;10.960;2024-03-02T01:18:41;416.00;;;105.37;;
15883;SDS011;8040;50.254;10.960;2024-03-02T01:21:07;413.37;;;104.40;;
15883;SDS011;8040;50.254;10.960;2024-03-02T01:23:33;406.30;;;104.10;;
15883;SDS011;8040;50.254;10.960;2024-03-02T01:25:58;415.63;;;105.20;;
15883;SDS011;8040;50.254;10.960;2024-03-02T01:28:24;425.42;;;108.53;;
15883;SDS011;8040;50.254;10.960;2024-03-02T01:30:49;415.75;;;106.82;;
15883;SDS011;8040;50.254;10.960;2024-03-02T01:33:15;415.52;;;108.57;;
15883;SDS011;8040;50.254;10.960;2024-03-02T01:35:42;419.92;;;108.70;;
15883;SDS011;8040;50.254;10.960;2024-03-02T01:38:08;425.48;;;110.18;;
15883;SDS011;8040;50.254;10.960;2024-03-02T01:40:37;427.20;;;109.20;;
15883;SDS011;8040;50.254;10.960;2024-03-02T01:43:06;438.02;;;112.63;;
15883;SDS011;8040;50.254;10.960;2024-03-02T01:45:32;420.90;;;107.53;;
15883;SDS011;8040;50.254;10.960;2024-03-02T01:47:58;428.20;;;109.85;;
15883;SDS011;8040;50.254;10.960;2024-03-02T01:50:27;423.92;;;108.88;;
15883;SDS011;8040;50.254;10.960;2024-03-02T01:52:54;429.57;;;111.07;;
15883;SDS011;8040;50.254;10.960;2024-03-02T01:55:20;408.85;;;104.57;;
15883;SDS011;8040;50.254;10.960;2024-03-02T01:57:46;418.55;;;108.15;;
15883;SDS011;8040;50.254;10.960;2024-03-02T02:00:13;412.73;;;105.00;;
15883;SDS011;8040;50.254;10.960;2024-03-02T02:02:38;431.27;;;110.45;;
15883;SDS011;8040;50.254;10.960;2024-03-02T02:05:04;428.53;;;110.30;;
15883;SDS011;8040;50.254;10.960;2024-03-02T02:07:29;435.10;;;111.47;;
15883;SDS011;8040;50.254;10.960;2024-03-02T02:09:55;433.75;;;112.82;;
15883;SDS011;8040;50.254;10.960;2024-03-02T02:12:21;427.50;;;109.88;;
15883;SDS011;8040;50.254;10.960;2024-03-02T02:14:49;422.25;;;107.95;;
15883;SDS011;8040;50.254;10.960;2024-03-02T02:17:18;418.20;;;107.32;;
15883;SDS011;8040;50.254;10.960;2024-03-02T02:19:43;442.70;;;113.43;;
15883;SDS011;8040;50.254;10.960;2024-03-02T02:22:12;423.43;;;108.80;;
15883;SDS011;8040;50.254;10.960;2024-03-02T02:24:41;420.73;;;109.38;;
15883;SDS011;8040;50.254;10.960;2024-03-02T02:27:07;421.52;;;108.32;;
15883;SDS011;8040;50.254;10.960;2024-03-02T02:29:32;429.88;;;111.40;;
15883;SDS011;8040;50.254;10.960;2024-03-02T02:31:58;423.00;;;108.07;;
15883;SDS011;8040;50.254;10.960;2024-03-02T02:34:23;430.63;;;110.40;;
15883;SDS011;8040;50.254;10.960;2024-03-02T02:36:49;421.00;;;108.43;;
15883;SDS011;8040;50.254;10.960;2024-03-02T02:39:15;419.73;;;106.07;;
15883;SDS011;8040;50.254;10.960;2024-03-02T02:41:43;433.08;;;109.93;;
15883;SDS011;8040;50.254;10.960;2024-03-02T02:44:08;412.03;;;105.20;;
15883;SDS011;8040;50.254;10.960;2024-03-02T02:46:36;417.07;;;107.67;;
15883;SDS011;8040;50.254;10.960;2024-03-02T02:49:01;423.57;;;109.77;;
15883;SDS011;8040;50.254;10.960;2024-03-02T02:51:27;426.57;;;110.53;;
15883;SDS011;8040;50.254;10.960;2024-03-02T02:53:52;415.33;;;106.87;;
15883;SDS011;8040;50.254;10.960;2024-03-02T02:56:18;426.23;;;109.47;;
15883;SDS011;8040;50.254;10.960;2024-03-02T02:58:43;422.07;;;108.17;;
15883;SDS011;8040;50.254;10.960;2024-03-02T03:01:08;420.40;;;108.35;;
15883;SDS011;8040;50.254;10.960;2024-03-02T03:03:34;422.45;;;108.68;;
15883;SDS011;8040;50.254;10.960;2024-03-02T03:05:59;424.98;;;109.53;;
15883;SDS011;8040;50.254;10.960;2024-03-02T03:08:25;422.63;;;108.78;;
15883;SDS011;8040;50.254;10.960;2024-03-02T03:10:50;421.33;;;108.85;;
15883;SDS011;8040;50.254;10.960;2024-03-02T03:13:16;427.35;;;110.38;;
15883;SDS011;8040;50.254;10.960;2024-03-02T03:15:41;423.85;;;108.18;;
15883;SDS011;8040;50.254;10.960;2024-03-02T03:18:07;426.88;;;110.50;;
15883;SDS011;8040;50.254;10.960;2024-03-02T03:20:33;421.58;;;107.55;;
15883;SDS011;8040;50.254;10.960;2024-03-02T03:22:59;421.67;;;109.00;;
15883;SDS011;8040;50.254;10.960;2024-03-02T03:25:24;418.25;;;107.72;;
15883;SDS011;8040;50.254;10.960;2024-03-02T03:27:50;425.50;;;109.57;;
15883;SDS011;8040;50.254;10.960;2024-03-02T03:30:17;421.77;;;108.38;;
15883;SDS011;8040;50.254;10.960;2024-03-02T03:32:43;429.40;;;111.60;;
15883;SDS011;8040;50.254;10.960;2024-03-02T03:35:08;420.83;;;107.80;;
15883;SDS011;8040;50.254;10.960;2024-03-02T03:37:34;423.17;;;110.63;;
15883;SDS011;8040;50.254;10.960;2024-03-02T03:40:00;423.23;;;110.63;;
15883;SDS011;8040;50.254;10.960;2024-03-02T03:42:26;416.55;;;109.35;;
15883;SDS011;8040;50.254;10.960;2024-03-02T03:44:51;423.38;;;111.30;;
15883;SDS011;8040;50.254;10.960;2024-03-02T03:47:17;419.73;;;109.47;;
15883;SDS011;8040;50.254;10.960;2024-03-02T03:49:42;422.35;;;110.68;;
15883;SDS011;8040;50.254;10.960;2024-03-02T03:52:08;417.80;;;108.28;;
15883;SDS011;8040;50.254;10.960;2024-03-02T03:54:33;424.27;;;111.60;;
15883;SDS011;8040;50.254;10.960;2024-03-02T03:56:58;424.60;;;110.13;;
15883;SDS011;8040;50.254;10.960;2024-03-02T03:59:24;405.20;;;104.93;;
15883;SDS011;8040;50.254;10.960;2024-03-02T04:01:49;420.23;;;109.67;;
15883;SDS011;8040;50.254;10.960;2024-03-02T04:04:15;418.10;;;109.47;;
15883;SDS011;8040;50.254;10.960;2024-03-02T04:06:40;423.00;;;110.33;;
15883;SDS011;8040;50.254;10.960;2024-03-02T04:09:06;420.80;;;110.97;;
15883;SDS011;8040;50.254;10.960;2024-03-02T04:11:32;418.55;;;109.47;;
15883;SDS011;8040;50.254;10.960;2024-03-02T04:13:57;423.33;;;111.95;;
15883;SDS011;8040;50.254;10.960;2024-03-02T04:16:23;411.90;;;108.03;;
15883;SDS011;8040;50.254;10.960;2024-03-02T04:18:48;425.87;;;112.33;;
15883;SDS011;8040;50.254;10.960;2024-03-02T04:21:13;416.27;;;109.43;;
15883;SDS011;8040;50.254;10.960;2024-03-02T04:23:39;423.87;;;110.97;;
15883;SDS011;8040;50.254;10.960;2024-03-02T04:26:04;413.40;;;108.43;;
15883;SDS011;8040;50.254;10.960;2024-03-02T04:28:30;427.37;;;112.13;;
15883;SDS011;8040;50.254;10.960;2024-03-02T04:30:55;411.02;;;107.45;;
15883;SDS011;8040;50.254;10.960;2024-03-02T04:33:20;430.02;;;111.28;;
15883;SDS011;8040;50.254;10.960;2024-03-02T04:35:46;413.37;;;106.40;;
15883;SDS011;8040;50.254;10.960;2024-03-02T04:38:11;419.73;;;108.90;;
15883;SDS011;8040;50.254;10.960;2024-03-02T04:40:37;429.47;;;110.53;;
15883;SDS011;8040;50.254;10.960;2024-03-02T04:43:02;424.70;;;110.60;;
15883;SDS011;8040;50.254;10.960;2024-03-02T04:45:28;428.50;;;110.45;;
15883;SDS011;8040;50.254;10.960;2024-03-02T04:47:54;420.83;;;108.13;;
15883;SDS011;8040;50.254;10.960;2024-03-02T04:50:19;415.83;;;107.63;;
15883;SDS011;8040;50.254;10.960;2024-03-02T04:52:45;426.87;;;109.83;;
15883;SDS011;8040;50.254;10.960;2024-03-02T04:55:10;419.33;;;108.43;;
15883;SDS011;8040;50.254;10.960;2024-03-02T04:57:41;420.17;;;109.43;;
15883;SDS011;8040;50.254;10.960;2024-03-02T05:00:07;419.90;;;107.50;;
15883;SDS011;8040;50.254;10.960;2024-03-02T05:02:34;430.88;;;111.88;;
15883;SDS011;8040;50.254;10.960;2024-03-02T05:04:59;429.98;;;110.32;;
15883;SDS011;8040;50.254;10.960;2024-03-02T05:07:25;429.07;;;111.33;;
15883;SDS011;8040;50.254;10.960;2024-03-02T05:09:50;424.37;;;108.30;;
15883;SDS011;8040;50.254;10.960;2024-03-02T05:12:16;425.93;;;110.33;;
15883;SDS011;8040;50.254;10.960;2024-03-02T05:14:41;419.43;;;109.10;;
15883;SDS011;8040;50.254;10.960;2024-03-02T05:17:06;421.08;;;109.72;;
15883;SDS011;8040;50.254;10.960;2024-03-02T05:19:32;416.00;;;107.85;;
15883;SDS011;8040;50.254;10.960;2024-03-02T05:21:57;412.43;;;106.27;;
15883;SDS011;8040;50.254;10.960;2024-03-02T05:24:23;416.47;;;107.00;;
15883;SDS011;8040;50.254;10.960;2024-03-02T05:26:48;422.75;;;108.38;;
15883;SDS011;8040;50.254;10.960;2024-03-02T05:29:14;417.13;;;107.18;;
15883;SDS011;8040;50.254;10.960;2024-03-02T05:31:39;426.77;;;109.25;;
15883;SDS011;8040;50.254;10.960;2024-03-02T05:34:05;424.35;;;109.18;;
15883;SDS011;8040;50.254;10.960;2024-03-02T05:36:31;415.67;;;106.87;;
15883;SDS011;8040;50.254;10.960;2024-03-02T05:38:58;420.97;;;107.70;;
15883;SDS011;8040;50.254;10.960;2024-03-02T05:41:23;420.67;;;108.40;;
15883;SDS011;8040;50.254;10.960;2024-03-02T05:43:48;413.67;;;105.47;;
15883;SDS011;8040;50.254;10.960;2024-03-02T05:46:14;425.67;;;109.38;;
15883;SDS011;8040;50.254;10.960;2024-03-02T05:48:40;417.98;;;105.93;;
15883;SDS011;8040;50.254;10.960;2024-03-02T05:51:05;419.45;;;107.03;;
15883;SDS011;8040;50.254;10.960;2024-03-02T05:53:31;420.07;;;108.20;;
15883;SDS011;8040;50.254;10.960;2024-03-02T05:55:56;429.73;;;109.50;;
15883;SDS011;8040;50.254;10.960;2024-03-02T05:58:22;430.40;;;111.00;;
15883;SDS011;8040;50.254;10.960;2024-03-02T06:00:57;427.80;;;109.82;;
15883;SDS011;8040;50.254;10.960;2024-03-02T06:03:23;426.45;;;110.25;;
15883;SDS011;8040;50.254;10.960;2024-03-02T06:05:48;438.75;;;112.45;;
15883;SDS011;8040;50.254;10.960;2024-03-02T06:08:14;426.58;;;109.60;;
15883;SDS011;8040;50.254;10.960;2024-03-02T06:10:40;424.85;;;109.93;;
15883;SDS011;8040;50.254;10.960;2024-03-02T06:13:05;429.57;;;111.27;;
15883;SDS011;8040;50.254;10.960;2024-03-02T06:15:31;425.87;;;109.10;;
15883;SDS011;8040;50.254;10.960;2024-03-02T06:17:56;429.57;;;110.67;;
15883;SDS011;8040;50.254;10.960;2024-03-02T06:20:21;425.37;;;110.50;;
15883;SDS011;8040;50.254;10.960;2024-03-02T06:22:47;434.15;;;112.45;;
15883;SDS011;8040;50.254;10.960;2024-03-02T06:25:12;422.77;;;110.37;;
15883;SDS011;8040;50.254;10.960;2024-03-02T06:27:38;424.15;;;110.00;;
15883;SDS011;8040;50.254;10.960;2024-03-02T06:30:03;430.33;;;112.03;;
15883;SDS011;8040;50.254;10.960;2024-03-02T06:32:29;429.13;;;110.60;;
15883;SDS011;8040;50.254;10.960;2024-03-02T06:34:55;432.33;;;111.53;;
15883;SDS011;8040;50.254;10.960;2024-03-02T06:37:20;433.37;;;113.50;;
15883;SDS011;8040;50.254;10.960;2024-03-02T06:39:45;428.17;;;110.72;;
15883;SDS011;8040;50.254;10.960;2024-03-02T06:42:11;469.27;;;123.43;;
15883;SDS011;8040;50.254;10.960;2024-03-02T06:44:36;430.43;;;111.40;;
15883;SDS011;8040;50.254;10.960;2024-03-02T06:47:01;457.17;;;119.73;;
15883;SDS011;8040;50.254;10.960;2024-03-02T06:49:27;425.53;;;109.10;;
15883;SDS011;8040;50.254;10.960;2024-03-02T06:51:52;425.20;;;108.23;;
15883;SDS011;8040;50.254;10.960;2024-03-02T06:54:17;420.50;;;107.93;;
15883;SDS011;8040;50.254;10.960;2024-03-02T06:56:43;418.77;;;106.45;;
15883;SDS011;8040;50.254;10.960;2024-03-02T06:59:08;430.25;;;109.97;;
15883;SDS011;8040;50.254;10.960;2024-03-02T07:01:33;428.37;;;109.70;;
15883;SDS011;8040;50.254;10.960;2024-03-02T07:03:59;464.00;;;123.10;;
15883;SDS011;8040;50.254;10.960;2024-03-02T07:06:25;419.42;;;107.68;;
15883;SDS011;8040;50.254;10.960;2024-03-02T07:08:50;486.87;;;130.57;;
15883;SDS011;8040;50.254;10.960;2024-03-02T07:11:15;419.63;;;108.00;;
15883;SDS011;8040;50.254;10.960;2024-03-02T07:13:41;471.50;;;125.10;;
15883;SDS011;8040;50.254;10.960;2024-03-02T07:16:06;463.00;;;126.87;;
15883;SDS011;8040;50.254;10.960;2024-03-02T07:18:53;456.85;;;120.05;;
15883;SDS011;8040;50.254;10.960;2024-03-02T07:21:20;424.27;;;109.78;;
15883;SDS011;8040;50.254;10.960;2024-03-02T07:23:49;426.42;;;109.43;;
15883;SDS011;8040;50.254;10.960;2024-03-02T07:26:15;427.80;;;111.25;;
15883;SDS011;8040;50.254;10.960;2024-03-02T07:28:43;432.90;;;112.75;;
15883;SDS011;8040;50.254;10.960;2024-03-02T07:31:10;432.08;;;115.00;;
15883;SDS011;8040;50.254;10.960;2024-03-02T07:33:36;438.17;;;115.63;;
15883;SDS011;8040;50.254;10.960;2024-03-02T07:36:01;438.03;;;116.83;;
15883;SDS011;8040;50.254;10.960;2024-03-02T07:38:30;451.13;;;118.75;;
15883;SDS011;8040;50.254;10.960;2024-03-02T07:40:57;454.38;;;120.95;;
15883;SDS011;8040;50.254;10.960;2024-03-02T07:43:23;467.90;;;126.43;;
15883;SDS011;8040;50.254;10.960;2024-03-02T07:45:48;443.37;;;119.97;;
15883;SDS011;8040;50.254;10.960;2024-03-02T07:48:14;433.33;;;117.50;;
15883;SDS011;8040;50.254;10.960;2024-03-02T07:50:40;440.60;;;118.93;;
15883;SDS011;8040;50.254;10.960;2024-03-02T07:53:05;436.85;;;118.55;;
15883;SDS011;8040;50.254;10.960;2024-03-02T07:55:32;431.63;;;116.57;;
15883;SDS011;8040;50.254;10.960;2024-03-02T07:57:58;440.10;;;119.70;;
15883;SDS011;8040;50.254;10.960;2024-03-02T08:00:24;435.85;;;117.57;;
15883;SDS011;8040;50.254;10.960;2024-03-02T08:02:50;453.23;;;122.05;;
15883;SDS011;8040;50.254;10.960;2024-03-02T08:05:17;437.60;;;118.27;;
15883;SDS011;8040;50.254;10.960;2024-03-02T08:07:44;448.98;;;120.22;;
15883;SDS011;8040;50.254;10.960;2024-03-02T08:10:10;435.73;;;118.93;;
15883;SDS011;8040;50.254;10.960;2024-03-02T08:12:36;442.50;;;119.25;;
15883;SDS011;8040;50.254;10.960;2024-03-02T08:15:01;441.73;;;120.78;;
15883;SDS011;8040;50.254;10.960;2024-03-02T08:17:26;436.10;;;119.72;;
15883;SDS011;8040;50.254;10.960;2024-03-02T08:19:52;439.88;;;120.90;;
15883;SDS011;8040;50.254;10.960;2024-03-02T08:22:18;456.75;;;125.90;;
15883;SDS011;8040;50.254;10.960;2024-03-02T08:24:44;444.30;;;122.53;;
15883;SDS011;8040;50.254;10.960;2024-03-02T08:27:10;443.15;;;123.28;;
15883;SDS011;8040;50.254;10.960;2024-03-02T08:29:36;476.20;;;130.20;;
15883;SDS011;8040;50.254;10.960;2024-03-02T08:32:01;474.13;;;131.13;;
15883;SDS011;8040;50.254;10.960;2024-03-02T08:34:28;440.38;;;123.45;;
15883;SDS011;8040;50.254;10.960;2024-03-02T08:36:54;441.13;;;122.35;;
15883;SDS011;8040;50.254;10.960;2024-03-02T08:39:19;447.60;;;124.53;;
15883;SDS011;8040;50.254;10.960;2024-03-02T08:41:45;435.67;;;122.05;;
15883;SDS011;8040;50.254;10.960;2024-03-02T08:44:12;453.83;;;125.50;;
15883;SDS011;8040;50.254;10.960;2024-03-02T08:46:38;448.60;;;126.75;;
15883;SDS011;8040;50.254;10.960;2024-03-02T08:49:04;442.88;;;124.60;;
15883;SDS011;8040;50.254;10.960;2024-03-02T08:51:30;444.53;;;125.70;;
15883;SDS011;8040;50.254;10.960;2024-03-02T08:53:55;448.57;;;126.27;;
15883;SDS011;8040;50.254;10.960;2024-03-02T08:56:21;465.40;;;132.75;;
15883;SDS011;8040;50.254;10.960;2024-03-02T08:58:48;453.53;;;129.07;;
15883;SDS011;8040;50.254;10.960;2024-03-02T09:01:15;460.30;;;130.55;;
15883;SDS011;8040;50.254;10.960;2024-03-02T09:03:41;449.23;;;128.63;;
15883;SDS011;8040;50.254;10.960;2024-03-02T09:06:09;441.67;;;124.03;;
15883;SDS011;8040;50.254;10.960;2024-03-02T09:08:35;445.58;;;125.88;;
15883;SDS011;8040;50.254;10.960;2024-03-02T09:11:02;434.37;;;121.30;;
15883;SDS011;8040;50.254;10.960;2024-03-02T09:13:28;465.73;;;131.65;;
15883;SDS011;8040;50.254;10.960;2024-03-02T09:15:54;439.88;;;121.28;;
15883;SDS011;8040;50.254;10.960;2024-03-02T09:18:19;455.57;;;126.93;;
15883;SDS011;8040;50.254;10.960;2024-03-02T09:20:45;444.83;;;124.43;;
15883;SDS011;8040;50.254;10.960;2024-03-02T09:23:11;464.40;;;129.20;;
15883;SDS011;8040;50.254;10.960;2024-03-02T09:25:36;462.63;;;129.45;;
15883;SDS011;8040;50.254;10.960;2024-03-02T09:28:02;455.67;;;125.30;;
15883;SDS011;8040;50.254;10.960;2024-03-02T09:30:28;478.85;;;145.50;;
15883;SDS011;8040;50.254;10.960;2024-03-02T09:32:53;461.33;;;129.60;;
15883;SDS011;8040;50.254;10.960;2024-03-02T09:35:19;464.00;;;130.50;;
15883;SDS011;8040;50.254;10.960;2024-03-02T09:37:45;465.13;;;130.23;;
15883;SDS011;8040;50.254;10.960;2024-03-02T09:40:10;455.13;;;129.70;;
15883;SDS011;8040;50.254;10.960;2024-03-02T09:42:36;453.87;;;129.30;;
15883;SDS011;8040;50.254;10.960;2024-03-02T09:45:02;469.95;;;132.43;;
15883;SDS011;8040;50.254;10.960;2024-03-02T09:47:27;471.27;;;135.05;;
15883;SDS011;8040;50.254;10.960;2024-03-02T09:49:53;476.33;;;135.53;;
15883;SDS011;8040;50.254;10.960;2024-03-02T09:52:20;455.27;;;130.90;;
15883;SDS011;8040;50.254;10.960;2024-03-02T09:54:47;473.95;;;137.88;;
15883;SDS011;8040;50.254;10.960;2024-03-02T09:57:14;454.55;;;130.82;;
15883;SDS011;8040;50.254;10.960;2024-03-02T09:59:39;465.58;;;134.65;;
15883;SDS011;8040;50.254;10.960;2024-03-02T10:02:05;480.40;;;138.87;;
15883;SDS011;8040;50.254;10.960;2024-03-02T10:04:32;463.52;;;133.30;;
15883;SDS011;8040;50.254;10.960;2024-03-02T10:07:09;474.30;;;137.73;;
15883;SDS011;8040;50.254;10.960;2024-03-02T10:09:36;479.77;;;140.10;;
15883;SDS011;8040;50.254;10.960;2024-03-02T10:12:05;475.80;;;139.13;;
15883;SDS011;8040;50.254;10.960;2024-03-02T10:14:32;483.15;;;141.80;;
15883;SDS011;8040;50.254;10.960;2024-03-02T10:17:04;461.73;;;134.20;;
15883;SDS011;8040;50.254;10.960;2024-03-02T10:19:31;461.30;;;135.35;;
15883;SDS011;8040;50.254;10.960;2024-03-02T10:22:00;478.33;;;141.23;;
15883;SDS011;8040;50.254;10.960;2024-03-02T10:24:28;476.17;;;139.30;;
15883;SDS011;8040;50.254;10.960;2024-03-02T10:27:07;488.17;;;144.35;;
15883;SDS011;8040;50.254;10.960;2024-03-02T10:29:40;476.30;;;141.68;;
15883;SDS011;8040;50.254;10.960;2024-03-02T10:32:08;500.25;;;152.02;;
15883;SDS011;8040;50.254;10.960;2024-03-02T10:34:34;505.65;;;148.48;;
15883;SDS011;8040;50.254;10.960;2024-03-02T10:37:00;485.97;;;143.53;;
15883;SDS011;8040;50.254;10.960;2024-03-02T10:39:26;502.00;;;153.13;;
15883;SDS011;8040;50.254;10.960;2024-03-02T10:41:53;484.40;;;145.02;;
15883;SDS011;8040;50.254;10.960;2024-03-02T10:44:20;485.57;;;144.27;;
15883;SDS011;8040;50.254;10.960;2024-03-02T10:46:47;561.63;;;176.80;;
15883;SDS011;8040;50.254;10.960;2024-03-02T10:49:15;563.35;;;175.82;;
15883;SDS011;8040;50.254;10.960;2024-03-02T10:51:42;487.50;;;145.83;;
15883;SDS011;8040;50.254;10.960;2024-03-02T10:54:07;498.63;;;149.73;;
15883;SDS011;8040;50.254;10.960;2024-03-02T10:56:39;505.87;;;152.50;;
15883;SDS011;8040;50.254;10.960;2024-03-02T10:59:09;478.67;;;144.38;;
15883;SDS011;8040;50.254;10.960;2024-03-02T11:01:37;476.10;;;144.05;;
15883;SDS011;8040;50.254;10.960;2024-03-02T11:04:04;497.80;;;153.70;;
15883;SDS011;8040;50.254;10.960;2024-03-02T11:06:33;480.38;;;142.75;;
15883;SDS011;8040;50.254;10.960;2024-03-02T11:09:05;468.63;;;140.23;;
15883;SDS011;8040;50.254;10.960;2024-03-02T11:11:36;456.02;;;136.60;;
15883;SDS011;8040;50.254;10.960;2024-03-02T11:14:07;482.88;;;144.23;;
15883;SDS011;8040;50.254;10.960;2024-03-02T11:16:37;464.58;;;141.80;;
15883;SDS011;8040;50.254;10.960;2024-03-02T11:19:08;476.45;;;145.50;;
15883;SDS011;8040;50.254;10.960;2024-03-02T11:21:36;486.75;;;147.85;;
15883;SDS011;8040;50.254;10.960;2024-03-02T11:26:48;500.83;;;154.57;;
15883;SDS011;8040;50.254;10.960;2024-03-02T11:32:01;489.58;;;150.10;;
15883;SDS011;8040;50.254;10.960;2024-03-02T11:34:33;498.63;;;151.68;;
15883;SDS011;8040;50.254;10.960;2024-03-02T11:37:03;473.57;;;144.73;;
15883;SDS011;8040;50.254;10.960;2024-03-02T11:39:29;471.30;;;143.05;;
15883;SDS011;8040;50.254;10.960;2024-03-02T11:41:56;480.90;;;146.52;;
15883;SDS011;8040;50.254;10.960;2024-03-02T11:44:25;486.48;;;148.68;;
15883;SDS011;8040;50.254;10.960;2024-03-02T11:46:52;481.23;;;146.48;;
15883;SDS011;8040;50.254;10.960;2024-03-02T11:49:36;477.38;;;145.55;;
15883;SDS011;8040;50.254;10.960;2024-03-02T11:52:07;485.33;;;144.55;;
15883;SDS011;8040;50.254;10.960;2024-03-02T11:54:34;513.13;;;156.82;;
15883;SDS011;8040;50.254;10.960;2024-03-02T11:57:01;476.92;;;144.98;;
15883;SDS011;8040;50.254;10.960;2024-03-02T11:59:28;468.27;;;142.60;;
15883;SDS011;8040;50.254;10.960;2024-03-02T12:01:54;487.40;;;149.18;;
15883;SDS011;8040;50.254;10.960;2024-03-02T12:04:21;500.73;;;151.57;;
15883;SDS011;8040;50.254;10.960;2024-03-02T12:06:47;493.63;;;151.97;;
15883;SDS011;8040;50.254;10.960;2024-03-02T12:09:20;493.17;;;148.55;;
15883;SDS011;8040;50.254;10.960;2024-03-02T12:11:45;480.15;;;146.55;;
15883;SDS011;8040;50.254;10.960;2024-03-02T12:14:11;490.50;;;149.07;;
15883;SDS011;8040;50.254;10.960;2024-03-02T12:16:43;480.73;;;145.32;;
15883;SDS011;8040;50.254;10.960;2024-03-02T12:19:09;491.88;;;150.48;;
15883;SDS011;8040;50.254;10.960;2024-03-02T12:21:34;500.43;;;155.03;;
15883;SDS011;8040;50.254;10.960;2024-03-02T12:24:01;494.92;;;151.63;;
15883;SDS011;8040;50.254;10.960;2024-03-02T12:26:26;502.75;;;156.38;;
15883;SDS011;8040;50.254;10.960;2024-03-02T12:28:53;505.92;;;157.38;;
15883;SDS011;8040;50.254;10.960;2024-03-02T12:31:19;490.05;;;150.32;;
15883;SDS011;8040;50.254;10.960;2024-03-02T12:33:45;488.33;;;148.53;;
15883;SDS011;8040;50.254;10.960;2024-03-02T12:36:12;473.80;;;145.77;;
15883;SDS011;8040;50.254;10.960;2024-03-02T12:38:43;495.02;;;154.00;;
15883;SDS011;8040;50.254;10.960;2024-03-02T12:41:09;466.93;;;144.83;;
15883;SDS011;8040;50.254;10.960;2024-03-02T12:43:34;486.30;;;149.67;;
15883;SDS011;8040;50.254;10.960;2024-03-02T12:45:59;472.10;;;146.40;;
15883;SDS011;8040;50.254;10.960;2024-03-02T12:48:25;481.20;;;149.57;;
15883;SDS011;8040;50.254;10.960;2024-03-02T12:50:51;464.00;;;145.43;;
15883;SDS011;8040;50.254;10.960;2024-03-02T12:53:17;472.85;;;148.70;;
15883;SDS011;8040;50.254;10.960;2024-03-02T12:55:42;466.67;;;145.37;;
15883;SDS011;8040;50.254;10.960;2024-03-02T12:58:16;476.80;;;149.55;;
15883;SDS011;8040;50.254;10.960;2024-03-02T13:00:45;466.33;;;148.35;;
15883;SDS011;8040;50.254;10.960;2024-03-02T13:03:11;467.02;;;147.30;;
15883;SDS011;8040;50.254;10.960;2024-03-02T13:05:36;462.50;;;145.50;;
15883;SDS011;8040;50.254;10.960;2024-03-02T13:08:02;499.87;;;158.83;;
15883;SDS011;8040;50.254;10.960;2024-03-02T13:10:29;481.08;;;150.50;;
15883;SDS011;8040;50.254;10.960;2024-03-02T13:12:55;483.65;;;150.45;;
15883;SDS011;8040;50.254;10.960;2024-03-02T13:15:21;552.97;;;192.13;;
15883;SDS011;8040;50.254;10.960;2024-03-02T13:17:47;482.23;;;151.17;;
15883;SDS011;8040;50.254;10.960;2024-03-02T13:20:14;480.90;;;151.00;;
15883;SDS011;8040;50.254;10.960;2024-03-02T13:22:40;463.13;;;147.57;;
15883;SDS011;8040;50.254;10.960;2024-03-02T13:25:05;499.40;;;158.90;;
15883;SDS011;8040;50.254;10.960;2024-03-02T13:27:31;496.27;;;155.63;;
15883;SDS011;8040;50.254;10.960;2024-03-02T13:29:57;497.80;;;157.10;;
15883;SDS011;8040;50.254;10.960;2024-03-02T13:32:23;485.30;;;153.52;;
15883;SDS011;8040;50.254;10.960;2024-03-02T13:34:50;483.33;;;150.57;;
15883;SDS011;8040;50.254;10.960;2024-03-02T13:37:16;463.03;;;144.47;;
15883;SDS011;8040;50.254;10.960;2024-03-02T13:39:42;469.80;;;145.63;;
15883;SDS011;8040;50.254;10.960;2024-03-02T13:42:08;463.70;;;145.43;;
15883;SDS011;8040;50.254;10.960;2024-03-02T13:44:38;457.42;;;146.60;;
15883;SDS011;8040;50.254;10.960;2024-03-02T13:47:04;465.30;;;146.20;;
15883;SDS011;8040;50.254;10.960;2024-03-02T13:49:30;460.63;;;144.93;;
15883;SDS011;8040;50.254;10.960;2024-03-02T13:52:00;472.70;;;146.20;;
15883;SDS011;8040;50.254;10.960;2024-03-02T13:54:28;463.70;;;143.48;;
15883;SDS011;8040;50.254;10.960;2024-03-02T13:56:55;455.92;;;142.10;;